AFR29S LFKJ-EHAM
Flight info
| Callsign | AFR29S |
|---|---|
| Flight time | N/A |
| Altitude | 34000 |
| Route | TORTU DCT ERTEV DCT AOSTA DCT ORSUD/N0449F350 DCT AOSTA/N0451F340 DCT ORSUD DCT MOLUS DCT GILIR DCT PENDU DCT IXILU DCT EPL DCT ROUSY DCT BUB Y28 HELEN |
| Aircraft | A321/M-SDE3FGHIRWY/LB1 |
Departure
| Time | N/A |
|---|---|
| Airport | Ajaccio Napoléon Bonaparte airport (LFKJ) |
Arrival
| Time | 2026-04-28 09:30 |
|---|---|
| Airport | Amsterdam Airport Schiphol (EHAM) |
| Time | Latitude | Longitude | Altitude | Speed | Heading |
|---|---|---|---|---|---|
| 2026-04-28 08:42 | 48.07656 | 6.94099 | 34048 ft | 432 kts | 332° |
| 2026-04-28 08:43 | 48.13279 | 6.90885 | 34051 ft | 433 kts | 332° |
| 2026-04-28 08:43 | 48.18898 | 6.87661 | 34046 ft | 432 kts | 332° |
| 2026-04-28 08:44 | 48.24515 | 6.84426 | 34097 ft | 432 kts | 332° |
| 2026-04-28 08:44 | 48.30114 | 6.81203 | 34087 ft | 430 kts | 332° |
| 2026-04-28 08:45 | 48.35681 | 6.77978 | 34082 ft | 428 kts | 332° |
| 2026-04-28 08:45 | 48.41227 | 6.74748 | 34068 ft | 427 kts | 332° |
| 2026-04-28 08:46 | 48.46729 | 6.71543 | 34086 ft | 427 kts | 332° |
| 2026-04-28 08:46 | 48.52271 | 6.68317 | 34068 ft | 427 kts | 332° |
| 2026-04-28 08:47 | 48.57811 | 6.65079 | 34066 ft | 427 kts | 332° |
| 2026-04-28 08:47 | 48.63356 | 6.61832 | 34060 ft | 427 kts | 332° |
| 2026-04-28 08:48 | 48.68900 | 6.58582 | 34059 ft | 427 kts | 332° |
| 2026-04-28 08:48 | 48.74442 | 6.55317 | 34067 ft | 427 kts | 332° |
| 2026-04-28 08:49 | 48.79992 | 6.52045 | 34056 ft | 429 kts | 332° |
| 2026-04-28 08:49 | 48.85558 | 6.48745 | 34053 ft | 430 kts | 332° |
| 2026-04-28 08:50 | 48.91141 | 6.45445 | 34077 ft | 431 kts | 333° |
| 2026-04-28 08:50 | 48.96750 | 6.42115 | 34057 ft | 434 kts | 333° |
| 2026-04-28 08:51 | 49.02382 | 6.38752 | 34054 ft | 436 kts | 333° |
| 2026-04-28 08:51 | 49.08033 | 6.35374 | 34058 ft | 437 kts | 333° |
| 2026-04-28 08:52 | 49.13694 | 6.31987 | 34078 ft | 437 kts | 333° |
| 2026-04-28 08:52 | 49.19368 | 6.28588 | 34070 ft | 438 kts | 334° |
| 2026-04-28 08:53 | 49.25013 | 6.25194 | 34066 ft | 439 kts | 334° |
| 2026-04-28 08:53 | 49.30698 | 6.21767 | 34085 ft | 440 kts | 333° |
| 2026-04-28 08:54 | 49.36394 | 6.18321 | 34099 ft | 440 kts | 334° |
| 2026-04-28 08:54 | 49.42099 | 6.14867 | 34095 ft | 441 kts | 334° |
| 2026-04-28 08:55 | 49.47737 | 6.11195 | 34097 ft | 437 kts | 326° |
| 2026-04-28 08:55 | 49.52756 | 6.06044 | 34098 ft | 434 kts | 321° |
| 2026-04-28 08:56 | 49.57710 | 6.00735 | 34098 ft | 434 kts | 321° |
| 2026-04-28 08:56 | 49.62672 | 5.95421 | 34107 ft | 435 kts | 321° |
| 2026-04-28 08:57 | 49.67639 | 5.90082 | 34096 ft | 435 kts | 321° |
| 2026-04-28 08:57 | 49.72611 | 5.84728 | 34100 ft | 436 kts | 321° |
| 2026-04-28 08:58 | 49.77594 | 5.79358 | 34085 ft | 437 kts | 321° |
| 2026-04-28 08:58 | 49.82583 | 5.73952 | 34088 ft | 438 kts | 321° |
| 2026-04-28 08:59 | 49.87578 | 5.68528 | 34087 ft | 439 kts | 322° |
| 2026-04-28 08:59 | 49.92585 | 5.63080 | 34086 ft | 440 kts | 322° |
| 2026-04-28 09:00 | 49.97596 | 5.57598 | 34091 ft | 441 kts | 322° |
| 2026-04-28 09:00 | 50.02611 | 5.52104 | 34099 ft | 441 kts | 322° |
| 2026-04-28 09:01 | 50.07598 | 5.46643 | 34120 ft | 442 kts | 322° |
| 2026-04-28 09:01 | 50.12628 | 5.41112 | 34115 ft | 443 kts | 322° |
| 2026-04-28 09:02 | 50.17666 | 5.35546 | 34113 ft | 444 kts | 322° |
| 2026-04-28 09:02 | 50.22710 | 5.29963 | 34127 ft | 444 kts | 322° |
| 2026-04-28 09:03 | 50.27752 | 5.24373 | 34130 ft | 444 kts | 322° |
| 2026-04-28 09:03 | 50.32794 | 5.18770 | 34140 ft | 445 kts | 323° |
| 2026-04-28 09:04 | 50.37840 | 5.13151 | 34138 ft | 445 kts | 323° |
| 2026-04-28 09:04 | 50.42883 | 5.07507 | 34155 ft | 445 kts | 322° |
| 2026-04-28 09:05 | 50.47928 | 5.01842 | 34153 ft | 446 kts | 322° |
| 2026-04-28 09:05 | 50.52984 | 4.96162 | 34155 ft | 447 kts | 322° |
| 2026-04-28 09:06 | 50.58046 | 4.90462 | 34153 ft | 448 kts | 322° |
| 2026-04-28 09:06 | 50.63110 | 4.84737 | 34165 ft | 449 kts | 323° |
| 2026-04-28 09:07 | 50.68182 | 4.78993 | 34172 ft | 449 kts | 322° |
| 2026-04-28 09:07 | 50.73252 | 4.73234 | 34186 ft | 449 kts | 323° |
| 2026-04-28 09:08 | 50.78320 | 4.67459 | 34217 ft | 449 kts | 322° |
| 2026-04-28 09:08 | 50.83405 | 4.61640 | 34197 ft | 453 kts | 323° |
| 2026-04-28 09:09 | 50.88456 | 4.55668 | 34190 ft | 454 kts | 316° |
| 2026-04-28 09:09 | 50.92486 | 4.48050 | 34192 ft | 452 kts | 300° |
| 2026-04-28 09:10 | 50.95766 | 4.39497 | 34182 ft | 455 kts | 300° |
| 2026-04-28 09:10 | 50.97419 | 4.35207 | 33806 ft | 457 kts | 300° |
| 2026-04-28 09:10 | 50.99093 | 4.30863 | 32650 ft | 464 kts | 300° |
| 2026-04-28 09:10 | 51.00757 | 4.26544 | 32163 ft | 455 kts | 299° |
| 2026-04-28 09:11 | 51.02396 | 4.22281 | 31531 ft | 450 kts | 298° |
| 2026-04-28 09:11 | 51.04021 | 4.18038 | 30826 ft | 448 kts | 298° |
| 2026-04-28 09:11 | 51.05635 | 4.13812 | 30064 ft | 447 kts | 298° |
| 2026-04-28 09:11 | 51.07246 | 4.09589 | 29130 ft | 447 kts | 298° |
| 2026-04-28 09:12 | 51.09013 | 4.05495 | 28122 ft | 452 kts | 306° |
| 2026-04-28 09:12 | 51.11166 | 4.01854 | 27408 ft | 452 kts | 315° |
| 2026-04-28 09:12 | 51.13615 | 3.98732 | 26709 ft | 451 kts | 321° |
| 2026-04-28 09:12 | 51.15279 | 3.96765 | 26244 ft | 449 kts | 321° |
| 2026-04-28 09:13 | 51.18613 | 3.92816 | 25349 ft | 444 kts | 321° |
| 2026-04-28 09:13 | 51.20303 | 3.90981 | 24892 ft | 443 kts | 327° |
| 2026-04-28 09:13 | 51.23061 | 3.88810 | 24264 ft | 442 kts | 338° |
| 2026-04-28 09:13 | 51.26977 | 3.87156 | 23366 ft | 439 kts | 352° |
| 2026-04-28 09:14 | 51.30008 | 3.86825 | 22628 ft | 435 kts | 360° |
| 2026-04-28 09:14 | 51.33023 | 3.86762 | 21903 ft | 431 kts | 360° |
| 2026-04-28 09:14 | 51.36008 | 3.86697 | 21228 ft | 427 kts | 360° |
| 2026-04-28 09:14 | 51.38011 | 3.86650 | 20773 ft | 424 kts | 360° |
| 2026-04-28 09:15 | 51.40951 | 3.86577 | 20092 ft | 420 kts | 360° |
| 2026-04-28 09:15 | 51.43861 | 3.86504 | 19419 ft | 416 kts | 360° |
| 2026-04-28 09:15 | 51.46745 | 3.86433 | 18772 ft | 413 kts | 360° |
| 2026-04-28 09:15 | 51.49604 | 3.86362 | 18083 ft | 409 kts | 360° |
| 2026-04-28 09:16 | 51.52395 | 3.86292 | 17435 ft | 403 kts | 0° |
| 2026-04-28 09:16 | 51.55177 | 3.86221 | 16837 ft | 397 kts | 2° |
| 2026-04-28 09:16 | 51.57928 | 3.86152 | 16212 ft | 394 kts | 1° |
| 2026-04-28 09:16 | 51.60650 | 3.86085 | 15652 ft | 388 kts | 1° |
| 2026-04-28 09:17 | 51.63336 | 3.86021 | 15086 ft | 384 kts | 3° |
| 2026-04-28 09:17 | 51.65991 | 3.85960 | 14557 ft | 379 kts | 1° |
| 2026-04-28 09:17 | 51.68605 | 3.86017 | 14015 ft | 372 kts | 8° |
| 2026-04-28 09:17 | 51.71113 | 3.86794 | 13411 ft | 363 kts | 19° |
| 2026-04-28 09:18 | 51.73426 | 3.88307 | 12800 ft | 356 kts | 31° |
| 2026-04-28 09:18 | 51.75485 | 3.90467 | 12194 ft | 350 kts | 41° |
| 2026-04-28 09:18 | 51.77294 | 3.93037 | 11641 ft | 344 kts | 45° |
| 2026-04-28 09:18 | 51.79073 | 3.95604 | 11062 ft | 342 kts | 44° |
| 2026-04-28 09:19 | 51.80836 | 3.98147 | 10617 ft | 335 kts | 45° |
| 2026-04-28 09:19 | 51.82538 | 4.00590 | 10492 ft | 320 kts | 44° |
| 2026-04-28 09:19 | 51.84160 | 4.02920 | 10373 ft | 304 kts | 44° |
| 2026-04-28 09:19 | 51.85702 | 4.05143 | 10250 ft | 290 kts | 45° |
| 2026-04-28 09:20 | 51.87171 | 4.07270 | 10082 ft | 278 kts | 45° |
| 2026-04-28 09:20 | 51.88597 | 4.09339 | 9734 ft | 273 kts | 46° |
| 2026-04-28 09:20 | 51.90003 | 4.11379 | 9335 ft | 270 kts | 45° |
| 2026-04-28 09:20 | 51.91350 | 4.13472 | 8902 ft | 267 kts | 53° |
| 2026-04-28 09:21 | 51.92434 | 4.15877 | 8494 ft | 263 kts | 58° |
| 2026-04-28 09:21 | 51.93479 | 4.18284 | 8114 ft | 261 kts | 57° |
| 2026-04-28 09:21 | 51.94521 | 4.20661 | 7845 ft | 257 kts | 57° |
| 2026-04-28 09:21 | 51.95561 | 4.23033 | 7641 ft | 258 kts | 57° |
| 2026-04-28 09:22 | 51.96601 | 4.25406 | 7437 ft | 258 kts | 57° |
| 2026-04-28 09:22 | 51.97627 | 4.27745 | 7233 ft | 258 kts | 57° |
| 2026-04-28 09:22 | 51.98677 | 4.30139 | 7035 ft | 256 kts | 58° |
| 2026-04-28 09:22 | 51.99703 | 4.32491 | 6836 ft | 255 kts | 58° |
| 2026-04-28 09:23 | 52.00709 | 4.34805 | 6614 ft | 254 kts | 58° |
| 2026-04-28 09:23 | 52.01720 | 4.37132 | 6354 ft | 252 kts | 57° |
| 2026-04-28 09:23 | 52.02731 | 4.39455 | 6092 ft | 251 kts | 57° |
| 2026-04-28 09:23 | 52.03738 | 4.41766 | 5822 ft | 250 kts | 58° |
| 2026-04-28 09:24 | 52.04741 | 4.44068 | 5570 ft | 249 kts | 57° |
| 2026-04-28 09:24 | 52.05739 | 4.46361 | 5317 ft | 248 kts | 57° |
| 2026-04-28 09:24 | 52.06732 | 4.48651 | 5062 ft | 247 kts | 57° |
| 2026-04-28 09:24 | 52.07718 | 4.50932 | 4801 ft | 246 kts | 58° |
| 2026-04-28 09:25 | 52.08700 | 4.53205 | 4540 ft | 245 kts | 57° |
| 2026-04-28 09:25 | 52.09678 | 4.55467 | 4279 ft | 243 kts | 57° |
| 2026-04-28 09:25 | 52.10646 | 4.57711 | 4021 ft | 242 kts | 57° |
| 2026-04-28 09:25 | 52.11613 | 4.59954 | 3721 ft | 241 kts | 57° |
| 2026-04-28 09:26 | 52.12571 | 4.62173 | 3418 ft | 237 kts | 58° |
| 2026-04-28 09:26 | 52.13509 | 4.64343 | 3110 ft | 233 kts | 57° |
| 2026-04-28 09:26 | 52.14434 | 4.66490 | 2801 ft | 230 kts | 57° |
| 2026-04-28 09:26 | 52.15340 | 4.68602 | 2485 ft | 225 kts | 57° |
| 2026-04-28 09:27 | 52.17085 | 4.72666 | 2093 ft | 210 kts | 57° |
| 2026-04-28 09:27 | 52.17900 | 4.74540 | 2060 ft | 194 kts | 57° |
| 2026-04-28 09:27 | 52.18848 | 4.76033 | 1964 ft | 190 kts | 38° |
| 2026-04-28 09:28 | 52.20077 | 4.76851 | 1821 ft | 191 kts | 18° |
| 2026-04-28 09:28 | 52.21375 | 4.76834 | 1669 ft | 186 kts | 357° |
| 2026-04-28 09:28 | 52.22594 | 4.76796 | 1378 ft | 166 kts | 14° |
| 2026-04-28 09:28 | 52.23689 | 4.77084 | 1095 ft | 155 kts | 12° |
| 2026-04-28 09:29 | 52.24727 | 4.77265 | 902 ft | 145 kts | 11° |
| 2026-04-28 09:29 | 52.25684 | 4.77388 | 694 ft | 136 kts | 9° |
| 2026-04-28 09:29 | 52.26650 | 4.77500 | 530 ft | 137 kts | 9° |
| 2026-04-28 09:29 | 52.27594 | 4.77595 | 329 ft | 136 kts | 9° |
| 2026-04-28 09:30 | 52.28540 | 4.77680 | 153 ft | 136 kts | 6° |
| 2026-04-28 09:30 | 52.29477 | 4.77766 | 4 ft | 132 kts | 7° |
| 2026-04-28 09:30 | 52.30226 | 4.77839 | 0 ft | 69 kts | 4° |
| 2026-04-28 09:30 | 52.30540 | 4.77867 | 0 ft | 30 kts | 2° |
| 2026-04-28 09:31 | 52.30746 | 4.77886 | -3 ft | 30 kts | 2° |
| 2026-04-28 09:31 | 52.30944 | 4.77815 | -3 ft | 28 kts | 334° |
| 2026-04-28 09:31 | 52.31097 | 4.77689 | -1 ft | 21 kts | 331° |
| 2026-04-28 09:31 | 52.31141 | 4.77521 | -1 ft | 16 kts | 236° |
| 2026-04-28 09:32 | 52.31070 | 4.77434 | -1 ft | 12 kts | 252° |
| 2026-04-28 09:32 | 52.31069 | 4.77339 | -1 ft | 5 kts | 263° |
| 2026-04-28 09:32 | 52.31044 | 4.77320 | -1 ft | 4 kts | 192° |
| 2026-04-28 09:32 | 52.31020 | 4.77316 | -1 ft | 3 kts | 184° |
| 2026-04-28 09:33 | 52.31000 | 4.77314 | -1 ft | 2 kts | 183° |
| 2026-04-28 09:33 | 52.30998 | 4.77314 | -1 ft | 0 kts | 183° |
| 2026-04-28 09:34 | 52.30999 | 4.77314 | -1 ft | 0 kts | 183° |